sensor_id;sensor_type;location;lat;lon;timestamp;temperature;humidity
16200;DHT22;8207;52.494;4.654;2022-08-01T00:01:49;19.00;99.90
16200;DHT22;8207;52.494;4.654;2022-08-01T00:04:16;19.00;99.90
16200;DHT22;8207;52.494;4.654;2022-08-01T00:06:43;18.90;99.90
16200;DHT22;8207;52.494;4.654;2022-08-01T00:09:09;19.00;99.90
16200;DHT22;8207;52.494;4.654;2022-08-01T00:11:38;18.90;99.90
16200;DHT22;8207;52.494;4.654;2022-08-01T00:14:04;18.90;99.90
16200;DHT22;8207;52.494;4.654;2022-08-01T00:16:31;18.90;99.90
16200;DHT22;8207;52.494;4.654;2022-08-01T00:18:58;18.90;99.90
16200;DHT22;8207;52.494;4.654;2022-08-01T00:21:25;18.80;99.90
16200;DHT22;8207;52.494;4.654;2022-08-01T00:23:52;18.80;99.90
16200;DHT22;8207;52.494;4.654;2022-08-01T00:26:19;18.80;99.90
16200;DHT22;8207;52.494;4.654;2022-08-01T00:28:47;18.90;99.90
16200;DHT22;8207;52.494;4.654;2022-08-01T00:31:14;18.80;99.90
16200;DHT22;8207;52.494;4.654;2022-08-01T00:33:41;18.80;99.90
16200;DHT22;8207;52.494;4.654;2022-08-01T00:36:08;18.80;99.90
16200;DHT22;8207;52.494;4.654;2022-08-01T00:38:35;18.80;99.90
16200;DHT22;8207;52.494;4.654;2022-08-01T00:41:01;18.80;99.90
16200;DHT22;8207;52.494;4.654;2022-08-01T00:43:28;18.80;99.90
16200;DHT22;8207;52.494;4.654;2022-08-01T00:45:57;18.70;99.90
16200;DHT22;8207;52.494;4.654;2022-08-01T00:48:24;18.80;99.90
16200;DHT22;8207;52.494;4.654;2022-08-01T00:50:50;18.80;99.90
16200;DHT22;8207;52.494;4.654;2022-08-01T00:53:17;18.80;99.90
16200;DHT22;8207;52.494;4.654;2022-08-01T00:55:44;18.80;99.90
16200;DHT22;8207;52.494;4.654;2022-08-01T00:58:11;18.80;99.90
16200;DHT22;8207;52.494;4.654;2022-08-01T01:00:38;18.80;99.90
16200;DHT22;8207;52.494;4.654;2022-08-01T01:03:06;18.70;99.90
16200;DHT22;8207;52.494;4.654;2022-08-01T01:05:40;18.80;99.90
16200;DHT22;8207;52.494;4.654;2022-08-01T01:08:16;18.80;99.90
16200;DHT22;8207;52.494;4.654;2022-08-01T01:10:48;18.70;99.90
16200;DHT22;8207;52.494;4.654;2022-08-01T01:13:20;18.80;99.90
16200;DHT22;8207;52.494;4.654;2022-08-01T01:15:55;18.80;99.90
16200;DHT22;8207;52.494;4.654;2022-08-01T01:18:30;18.80;99.90
16200;DHT22;8207;52.494;4.654;2022-08-01T01:21:03;18.80;99.90
16200;DHT22;8207;52.494;4.654;2022-08-01T01:23:46;18.80;99.90
16200;DHT22;8207;52.494;4.654;2022-08-01T01:26:31;18.80;99.90
16200;DHT22;8207;52.494;4.654;2022-08-01T01:29:08;18.80;99.90
16200;DHT22;8207;52.494;4.654;2022-08-01T01:31:42;18.80;99.90
16200;DHT22;8207;52.494;4.654;2022-08-01T01:34:12;18.80;99.90
16200;DHT22;8207;52.494;4.654;2022-08-01T01:36:40;18.80;99.90
16200;DHT22;8207;52.494;4.654;2022-08-01T01:39:08;18.80;99.90
16200;DHT22;8207;52.494;4.654;2022-08-01T01:41:36;18.80;99.90
16200;DHT22;8207;52.494;4.654;2022-08-01T01:44:06;18.80;99.90
16200;DHT22;8207;52.494;4.654;2022-08-01T01:46:34;18.70;99.90
16200;DHT22;8207;52.494;4.654;2022-08-01T01:49:03;18.70;99.90
16200;DHT22;8207;52.494;4.654;2022-08-01T01:51:30;18.70;99.90
16200;DHT22;8207;52.494;4.654;2022-08-01T01:53:58;18.70;99.90
16200;DHT22;8207;52.494;4.654;2022-08-01T01:56:26;18.60;99.90
16200;DHT22;8207;52.494;4.654;2022-08-01T01:58:56;18.60;99.90
16200;DHT22;8207;52.494;4.654;2022-08-01T02:01:28;18.70;99.90
16200;DHT22;8207;52.494;4.654;2022-08-01T02:03:56;18.60;99.90
16200;DHT22;8207;52.494;4.654;2022-08-01T02:06:24;18.60;99.90
16200;DHT22;8207;52.494;4.654;2022-08-01T02:11:20;18.50;99.90
16200;DHT22;8207;52.494;4.654;2022-08-01T02:13:52;18.50;99.90
16200;DHT22;8207;52.494;4.654;2022-08-01T02:16:21;18.50;99.90
16200;DHT22;8207;52.494;4.654;2022-08-01T02:18:50;18.50;99.90
16200;DHT22;8207;52.494;4.654;2022-08-01T02:21:25;18.50;99.90
16200;DHT22;8207;52.494;4.654;2022-08-01T02:23:55;18.50;99.90
16200;DHT22;8207;52.494;4.654;2022-08-01T02:26:23;18.50;99.90
16200;DHT22;8207;52.494;4.654;2022-08-01T02:28:54;18.50;99.90
16200;DHT22;8207;52.494;4.654;2022-08-01T02:31:23;18.50;99.90
16200;DHT22;8207;52.494;4.654;2022-08-01T02:33:56;18.50;99.90
16200;DHT22;8207;52.494;4.654;2022-08-01T02:36:26;18.50;99.90
16200;DHT22;8207;52.494;4.654;2022-08-01T02:38:55;18.40;99.90
16200;DHT22;8207;52.494;4.654;2022-08-01T02:41:25;18.40;99.90
16200;DHT22;8207;52.494;4.654;2022-08-01T02:43:56;18.40;99.90
16200;DHT22;8207;52.494;4.654;2022-08-01T02:46:28;18.40;99.90
16200;DHT22;8207;52.494;4.654;2022-08-01T02:49:00;18.40;99.90
16200;DHT22;8207;52.494;4.654;2022-08-01T02:51:28;18.40;99.90
16200;DHT22;8207;52.494;4.654;2022-08-01T02:53:57;18.30;99.90
16200;DHT22;8207;52.494;4.654;2022-08-01T02:56:26;18.30;99.90
16200;DHT22;8207;52.494;4.654;2022-08-01T02:59:02;18.30;99.90
16200;DHT22;8207;52.494;4.654;2022-08-01T03:01:30;18.30;99.90
16200;DHT22;8207;52.494;4.654;2022-08-01T03:03:59;18.30;99.90
16200;DHT22;8207;52.494;4.654;2022-08-01T03:06:27;18.20;99.90
16200;DHT22;8207;52.494;4.654;2022-08-01T03:08:55;18.20;99.90
16200;DHT22;8207;52.494;4.654;2022-08-01T03:11:23;18.20;99.90
16200;DHT22;8207;52.494;4.654;2022-08-01T03:13:52;18.20;99.90
16200;DHT22;8207;52.494;4.654;2022-08-01T03:16:22;18.10;99.90
16200;DHT22;8207;52.494;4.654;2022-08-01T03:18:51;18.10;99.90
16200;DHT22;8207;52.494;4.654;2022-08-01T03:21:22;18.00;99.90
16200;DHT22;8207;52.494;4.654;2022-08-01T03:23:50;18.00;99.90
16200;DHT22;8207;52.494;4.654;2022-08-01T03:26:24;18.00;99.90
16200;DHT22;8207;52.494;4.654;2022-08-01T03:28:52;18.00;99.90
16200;DHT22;8207;52.494;4.654;2022-08-01T03:31:22;18.00;99.90
16200;DHT22;8207;52.494;4.654;2022-08-01T03:33:50;17.90;99.90
16200;DHT22;8207;52.494;4.654;2022-08-01T03:36:23;18.00;99.90
16200;DHT22;8207;52.494;4.654;2022-08-01T03:38:52;18.00;99.90
16200;DHT22;8207;52.494;4.654;2022-08-01T03:41:21;17.90;99.90
16200;DHT22;8207;52.494;4.654;2022-08-01T03:43:56;18.00;99.90
16200;DHT22;8207;52.494;4.654;2022-08-01T03:46:28;18.00;99.90
16200;DHT22;8207;52.494;4.654;2022-08-01T03:48:58;17.90;99.90
16200;DHT22;8207;52.494;4.654;2022-08-01T03:51:30;18.00;99.90
16200;DHT22;8207;52.494;4.654;2022-08-01T03:53:59;17.90;99.90
16200;DHT22;8207;52.494;4.654;2022-08-01T03:56:27;17.90;99.90
16200;DHT22;8207;52.494;4.654;2022-08-01T03:58:58;18.00;99.90
16200;DHT22;8207;52.494;4.654;2022-08-01T04:01:27;17.90;99.90
16200;DHT22;8207;52.494;4.654;2022-08-01T04:03:54;18.00;99.90
16200;DHT22;8207;52.494;4.654;2022-08-01T04:06:21;18.00;99.90
16200;DHT22;8207;52.494;4.654;2022-08-01T04:08:50;18.00;99.90
16200;DHT22;8207;52.494;4.654;2022-08-01T04:11:23;18.00;99.90
16200;DHT22;8207;52.494;4.654;2022-08-01T04:13:51;18.00;99.90
16200;DHT22;8207;52.494;4.654;2022-08-01T04:16:18;18.00;99.90
16200;DHT22;8207;52.494;4.654;2022-08-01T04:18:45;18.00;99.90
16200;DHT22;8207;52.494;4.654;2022-08-01T04:21:13;18.00;99.90
16200;DHT22;8207;52.494;4.654;2022-08-01T04:23:41;17.90;99.90
16200;DHT22;8207;52.494;4.654;2022-08-01T04:26:12;18.00;99.90
16200;DHT22;8207;52.494;4.654;2022-08-01T04:28:42;18.00;99.90
16200;DHT22;8207;52.494;4.654;2022-08-01T04:31:10;18.00;99.90
16200;DHT22;8207;52.494;4.654;2022-08-01T04:33:40;17.90;99.90
16200;DHT22;8207;52.494;4.654;2022-08-01T04:36:10;17.90;99.90
16200;DHT22;8207;52.494;4.654;2022-08-01T04:38:38;17.90;99.90
16200;DHT22;8207;52.494;4.654;2022-08-01T04:41:07;17.90;99.90
16200;DHT22;8207;52.494;4.654;2022-08-01T04:43:37;17.90;99.90
16200;DHT22;8207;52.494;4.654;2022-08-01T04:46:05;17.90;99.90
16200;DHT22;8207;52.494;4.654;2022-08-01T04:48:33;17.90;99.90
16200;DHT22;8207;52.494;4.654;2022-08-01T04:51:00;17.90;99.90
16200;DHT22;8207;52.494;4.654;2022-08-01T04:53:27;17.90;99.90
16200;DHT22;8207;52.494;4.654;2022-08-01T04:55:54;17.90;99.90
16200;DHT22;8207;52.494;4.654;2022-08-01T04:58:22;18.00;99.90
16200;DHT22;8207;52.494;4.654;2022-08-01T05:00:50;18.00;99.90
16200;DHT22;8207;52.494;4.654;2022-08-01T05:03:17;18.00;99.90
16200;DHT22;8207;52.494;4.654;2022-08-01T05:05:44;17.90;99.90
16200;DHT22;8207;52.494;4.654;2022-08-01T05:08:11;17.90;99.90
16200;DHT22;8207;52.494;4.654;2022-08-01T05:10:38;17.90;99.90
16200;DHT22;8207;52.494;4.654;2022-08-01T05:13:05;17.90;99.90
16200;DHT22;8207;52.494;4.654;2022-08-01T05:15:33;17.90;99.90
16200;DHT22;8207;52.494;4.654;2022-08-01T05:18:02;17.90;99.90
16200;DHT22;8207;52.494;4.654;2022-08-01T05:20:29;17.90;99.90
16200;DHT22;8207;52.494;4.654;2022-08-01T05:22:56;17.80;99.90
16200;DHT22;8207;52.494;4.654;2022-08-01T05:25:23;17.80;99.90
16200;DHT22;8207;52.494;4.654;2022-08-01T05:27:50;17.90;99.90
16200;DHT22;8207;52.494;4.654;2022-08-01T05:30:17;17.90;99.90
16200;DHT22;8207;52.494;4.654;2022-08-01T05:32:44;17.90;99.90
16200;DHT22;8207;52.494;4.654;2022-08-01T05:35:13;17.90;99.90
16200;DHT22;8207;52.494;4.654;2022-08-01T05:37:40;17.90;99.90
16200;DHT22;8207;52.494;4.654;2022-08-01T05:40:08;18.00;99.90
16200;DHT22;8207;52.494;4.654;2022-08-01T05:42:34;17.90;99.90
16200;DHT22;8207;52.494;4.654;2022-08-01T05:45:02;17.90;99.90
16200;DHT22;8207;52.494;4.654;2022-08-01T05:47:28;17.90;99.90
16200;DHT22;8207;52.494;4.654;2022-08-01T05:49:55;18.00;99.90
16200;DHT22;8207;52.494;4.654;2022-08-01T05:52:24;18.10;99.90
16200;DHT22;8207;52.494;4.654;2022-08-01T05:54:50;18.10;99.90
16200;DHT22;8207;52.494;4.654;2022-08-01T05:57:17;18.20;99.90
16200;DHT22;8207;52.494;4.654;2022-08-01T05:59:45;18.30;99.90
16200;DHT22;8207;52.494;4.654;2022-08-01T06:02:11;18.30;99.90
16200;DHT22;8207;52.494;4.654;2022-08-01T06:04:38;18.40;99.90
16200;DHT22;8207;52.494;4.654;2022-08-01T06:07:05;18.40;99.90
16200;DHT22;8207;52.494;4.654;2022-08-01T06:09:33;18.40;99.90
16200;DHT22;8207;52.494;4.654;2022-08-01T06:12:01;18.40;99.90
16200;DHT22;8207;52.494;4.654;2022-08-01T06:14:28;18.40;99.90
16200;DHT22;8207;52.494;4.654;2022-08-01T06:16:55;18.30;99.90
16200;DHT22;8207;52.494;4.654;2022-08-01T06:19:22;18.30;99.90
16200;DHT22;8207;52.494;4.654;2022-08-01T06:21:49;18.30;99.90
16200;DHT22;8207;52.494;4.654;2022-08-01T06:24:16;18.30;99.90
16200;DHT22;8207;52.494;4.654;2022-08-01T06:26:44;18.40;99.90
16200;DHT22;8207;52.494;4.654;2022-08-01T06:29:11;18.50;99.90
16200;DHT22;8207;52.494;4.654;2022-08-01T06:31:38;18.50;99.90
16200;DHT22;8207;52.494;4.654;2022-08-01T06:34:05;18.50;99.90
16200;DHT22;8207;52.494;4.654;2022-08-01T06:36:32;18.50;99.90
16200;DHT22;8207;52.494;4.654;2022-08-01T06:38:59;18.60;99.90
16200;DHT22;8207;52.494;4.654;2022-08-01T06:41:25;18.70;99.90
16200;DHT22;8207;52.494;4.654;2022-08-01T06:43:54;18.70;99.90
16200;DHT22;8207;52.494;4.654;2022-08-01T06:46:20;18.70;99.90
16200;DHT22;8207;52.494;4.654;2022-08-01T06:48:47;18.70;99.90
16200;DHT22;8207;52.494;4.654;2022-08-01T06:51:14;18.70;99.90
16200;DHT22;8207;52.494;4.654;2022-08-01T06:53:43;18.70;99.90
16200;DHT22;8207;52.494;4.654;2022-08-01T06:56:10;18.70;99.90
16200;DHT22;8207;52.494;4.654;2022-08-01T06:58:37;18.70;99.90
16200;DHT22;8207;52.494;4.654;2022-08-01T07:01:06;18.70;99.90
16200;DHT22;8207;52.494;4.654;2022-08-01T07:03:33;18.90;99.90
16200;DHT22;8207;52.494;4.654;2022-08-01T07:06:01;19.30;99.90
16200;DHT22;8207;52.494;4.654;2022-08-01T07:08:28;19.70;99.90
16200;DHT22;8207;52.494;4.654;2022-08-01T07:10:55;20.20;99.90
16200;DHT22;8207;52.494;4.654;2022-08-01T07:13:25;20.60;99.90
16200;DHT22;8207;52.494;4.654;2022-08-01T07:15:52;20.90;99.90
16200;DHT22;8207;52.494;4.654;2022-08-01T07:18:20;21.20;99.90
16200;DHT22;8207;52.494;4.654;2022-08-01T07:20:48;21.50;99.90
16200;DHT22;8207;52.494;4.654;2022-08-01T07:23:15;21.70;99.90
16200;DHT22;8207;52.494;4.654;2022-08-01T07:25:42;21.80;99.90
16200;DHT22;8207;52.494;4.654;2022-08-01T07:28:09;22.00;99.90
16200;DHT22;8207;52.494;4.654;2022-08-01T07:30:36;22.10;99.90
16200;DHT22;8207;52.494;4.654;2022-08-01T07:33:03;22.00;99.90
16200;DHT22;8207;52.494;4.654;2022-08-01T07:35:31;21.80;99.90
16200;DHT22;8207;52.494;4.654;2022-08-01T07:37:58;21.70;99.90
16200;DHT22;8207;52.494;4.654;2022-08-01T07:40:25;21.80;99.90
16200;DHT22;8207;52.494;4.654;2022-08-01T07:42:52;22.10;99.90
16200;DHT22;8207;52.494;4.654;2022-08-01T07:45:18;22.30;99.90
16200;DHT22;8207;52.494;4.654;2022-08-01T07:47:46;22.60;99.90
16200;DHT22;8207;52.494;4.654;2022-08-01T07:50:16;22.90;99.90
16200;DHT22;8207;52.494;4.654;2022-08-01T07:52:44;23.10;89.70
16200;DHT22;8207;52.494;4.654;2022-08-01T07:55:12;23.20;90.30
16200;DHT22;8207;52.494;4.654;2022-08-01T07:57:39;23.40;74.80
16200;DHT22;8207;52.494;4.654;2022-08-01T08:00:07;23.60;83.80
16200;DHT22;8207;52.494;4.654;2022-08-01T08:02:34;23.80;68.70
16200;DHT22;8207;52.494;4.654;2022-08-01T08:05:01;23.70;57.40
16200;DHT22;8207;52.494;4.654;2022-08-01T08:07:30;23.70;65.70
16200;DHT22;8207;52.494;4.654;2022-08-01T08:09:58;23.60;55.60
16200;DHT22;8207;52.494;4.654;2022-08-01T08:12:25;23.60;62.50
16200;DHT22;8207;52.494;4.654;2022-08-01T08:14:52;23.70;77.10
16200;DHT22;8207;52.494;4.654;2022-08-01T08:17:19;23.90;47.50
16200;DHT22;8207;52.494;4.654;2022-08-01T08:19:46;24.00;48.40
16200;DHT22;8207;52.494;4.654;2022-08-01T08:22:13;24.10;44.50
16200;DHT22;8207;52.494;4.654;2022-08-01T08:24:39;24.30;49.00
16200;DHT22;8207;52.494;4.654;2022-08-01T08:27:08;24.30;28.30
16200;DHT22;8207;52.494;4.654;2022-08-01T08:29:36;24.30;21.10
16200;DHT22;8207;52.494;4.654;2022-08-01T08:32:03;24.40;39.50
16200;DHT22;8207;52.494;4.654;2022-08-01T08:34:30;24.50;7.20
16200;DHT22;8207;52.494;4.654;2022-08-01T08:36:57;24.50;1.00
16200;DHT22;8207;52.494;4.654;2022-08-01T08:39:25;24.50;1.00
16200;DHT22;8207;52.494;4.654;2022-08-01T08:41:56;24.40;1.00
16200;DHT22;8207;52.494;4.654;2022-08-01T08:44:25;24.50;10.90
16200;DHT22;8207;52.494;4.654;2022-08-01T08:46:52;24.80;1.00
16200;DHT22;8207;52.494;4.654;2022-08-01T08:49:23;24.90;1.00
16200;DHT22;8207;52.494;4.654;2022-08-01T08:51:51;24.80;1.00
16200;DHT22;8207;52.494;4.654;2022-08-01T08:54:21;24.70;1.00
16200;DHT22;8207;52.494;4.654;2022-08-01T08:56:50;24.60;1.00
16200;DHT22;8207;52.494;4.654;2022-08-01T08:59:18;24.50;15.00
16200;DHT22;8207;52.494;4.654;2022-08-01T09:01:47;24.50;10.60
16200;DHT22;8207;52.494;4.654;2022-08-01T09:04:14;24.70;1.00
16200;DHT22;8207;52.494;4.654;2022-08-01T09:06:40;24.70;1.00
16200;DHT22;8207;52.494;4.654;2022-08-01T09:09:09;24.60;1.00
16200;DHT22;8207;52.494;4.654;2022-08-01T09:11:36;24.60;1.00
16200;DHT22;8207;52.494;4.654;2022-08-01T09:14:06;24.70;1.00
16200;DHT22;8207;52.494;4.654;2022-08-01T09:16:34;24.90;1.00
16200;DHT22;8207;52.494;4.654;2022-08-01T09:19:10;25.00;1.00
16200;DHT22;8207;52.494;4.654;2022-08-01T09:21:37;25.10;1.00
16200;DHT22;8207;52.494;4.654;2022-08-01T09:24:13;25.10;1.00
16200;DHT22;8207;52.494;4.654;2022-08-01T09:26:41;25.10;1.00
16200;DHT22;8207;52.494;4.654;2022-08-01T09:29:17;24.80;1.00
16200;DHT22;8207;52.494;4.654;2022-08-01T09:31:44;24.80;1.00
16200;DHT22;8207;52.494;4.654;2022-08-01T09:34:14;24.70;1.00
16200;DHT22;8207;52.494;4.654;2022-08-01T09:36:47;24.80;1.00
16200;DHT22;8207;52.494;4.654;2022-08-01T09:39:18;24.80;1.00
16200;DHT22;8207;52.494;4.654;2022-08-01T09:41:45;24.90;1.00
16200;DHT22;8207;52.494;4.654;2022-08-01T09:44:13;24.80;1.00
16200;DHT22;8207;52.494;4.654;2022-08-01T09:46:50;24.90;1.00
16200;DHT22;8207;52.494;4.654;2022-08-01T09:49:29;24.80;1.00
16200;DHT22;8207;52.494;4.654;2022-08-01T09:51:58;24.50;1.00
16200;DHT22;8207;52.494;4.654;2022-08-01T09:54:30;24.50;1.00
16200;DHT22;8207;52.494;4.654;2022-08-01T09:57:11;24.60;1.00
16200;DHT22;8207;52.494;4.654;2022-08-01T09:59:40;24.50;1.00
16200;DHT22;8207;52.494;4.654;2022-08-01T10:02:10;24.40;1.00
16200;DHT22;8207;52.494;4.654;2022-08-01T10:04:47;24.40;1.00
16200;DHT22;8207;52.494;4.654;2022-08-01T10:07:15;24.30;1.00
16200;DHT22;8207;52.494;4.654;2022-08-01T10:09:42;24.30;1.00
16200;DHT22;8207;52.494;4.654;2022-08-01T10:12:12;24.20;1.00
16200;DHT22;8207;52.494;4.654;2022-08-01T10:14:40;24.20;1.00
16200;DHT22;8207;52.494;4.654;2022-08-01T10:17:08;24.20;1.00
16200;DHT22;8207;52.494;4.654;2022-08-01T10:19:36;24.20;1.00
16200;DHT22;8207;52.494;4.654;2022-08-01T10:22:07;24.10;1.00
16200;DHT22;8207;52.494;4.654;2022-08-01T10:24:37;24.10;1.00
16200;DHT22;8207;52.494;4.654;2022-08-01T10:27:06;24.10;1.00
16200;DHT22;8207;52.494;4.654;2022-08-01T10:29:36;24.00;1.00
16200;DHT22;8207;52.494;4.654;2022-08-01T10:32:04;24.10;1.00
16200;DHT22;8207;52.494;4.654;2022-08-01T10:34:32;24.10;1.00
16200;DHT22;8207;52.494;4.654;2022-08-01T10:37:00;24.10;1.00
16200;DHT22;8207;52.494;4.654;2022-08-01T10:39:29;24.00;1.00
16200;DHT22;8207;52.494;4.654;2022-08-01T10:41:56;24.00;1.00
16200;DHT22;8207;52.494;4.654;2022-08-01T10:44:24;24.00;1.00
16200;DHT22;8207;52.494;4.654;2022-08-01T10:46:55;24.10;1.00
16200;DHT22;8207;52.494;4.654;2022-08-01T10:49:28;24.30;1.00
16200;DHT22;8207;52.494;4.654;2022-08-01T10:51:56;24.40;1.00
16200;DHT22;8207;52.494;4.654;2022-08-01T10:54:25;24.40;99.90
16200;DHT22;8207;52.494;4.654;2022-08-01T10:56:54;24.40;99.90
16200;DHT22;8207;52.494;4.654;2022-08-01T10:59:23;24.40;1.00
16200;DHT22;8207;52.494;4.654;2022-08-01T11:01:58;24.50;1.00
16200;DHT22;8207;52.494;4.654;2022-08-01T11:04:44;24.50;1.00
16200;DHT22;8207;52.494;4.654;2022-08-01T11:07:17;24.60;1.00
16200;DHT22;8207;52.494;4.654;2022-08-01T11:09:46;24.60;99.90
16200;DHT22;8207;52.494;4.654;2022-08-01T11:12:16;24.60;22.90
16200;DHT22;8207;52.494;4.654;2022-08-01T11:15:21;24.80;1.00
16200;DHT22;8207;52.494;4.654;2022-08-01T11:17:52;25.00;1.00
16200;DHT22;8207;52.494;4.654;2022-08-01T11:20:20;24.70;1.00
16200;DHT22;8207;52.494;4.654;2022-08-01T11:23:15;24.60;1.00
16200;DHT22;8207;52.494;4.654;2022-08-01T11:26:06;24.50;99.90
16200;DHT22;8207;52.494;4.654;2022-08-01T11:28:34;24.50;1.00
16200;DHT22;8207;52.494;4.654;2022-08-01T11:31:26;24.50;99.90
16200;DHT22;8207;52.494;4.654;2022-08-01T11:33:53;24.60;1.00
16200;DHT22;8207;52.494;4.654;2022-08-01T11:36:21;24.60;99.90
16200;DHT22;8207;52.494;4.654;2022-08-01T11:38:49;24.50;99.90
16200;DHT22;8207;52.494;4.654;2022-08-01T11:41:39;24.40;99.90
16200;DHT22;8207;52.494;4.654;2022-08-01T11:44:07;24.50;99.90
16200;DHT22;8207;52.494;4.654;2022-08-01T11:46:54;24.50;99.90
16200;DHT22;8207;52.494;4.654;2022-08-01T11:49:33;24.50;99.90
16200;DHT22;8207;52.494;4.654;2022-08-01T11:52:04;24.40;1.00
16200;DHT22;8207;52.494;4.654;2022-08-01T11:54:34;24.40;1.00
16200;DHT22;8207;52.494;4.654;2022-08-01T11:57:05;24.40;1.00
16200;DHT22;8207;52.494;4.654;2022-08-01T11:59:37;24.40;1.00
16200;DHT22;8207;52.494;4.654;2022-08-01T12:02:18;24.50;30.00
16200;DHT22;8207;52.494;4.654;2022-08-01T12:04:47;24.40;99.90
16200;DHT22;8207;52.494;4.654;2022-08-01T12:07:15;24.30;99.90
16200;DHT22;8207;52.494;4.654;2022-08-01T12:09:42;24.30;99.90
16200;DHT22;8207;52.494;4.654;2022-08-01T12:12:14;24.30;99.90
16200;DHT22;8207;52.494;4.654;2022-08-01T12:14:42;24.30;1.00
16200;DHT22;8207;52.494;4.654;2022-08-01T12:17:09;24.10;1.00
16200;DHT22;8207;52.494;4.654;2022-08-01T12:19:36;24.10;99.90
16200;DHT22;8207;52.494;4.654;2022-08-01T12:22:08;24.20;99.90
16200;DHT22;8207;52.494;4.654;2022-08-01T12:24:36;24.30;1.00
16200;DHT22;8207;52.494;4.654;2022-08-01T12:27:03;24.40;1.00
16200;DHT22;8207;52.494;4.654;2022-08-01T12:29:36;24.50;1.00
16200;DHT22;8207;52.494;4.654;2022-08-01T12:32:04;24.60;1.00
16200;DHT22;8207;52.494;4.654;2022-08-01T12:34:34;24.70;1.00
16200;DHT22;8207;52.494;4.654;2022-08-01T12:37:01;24.70;1.00
16200;DHT22;8207;52.494;4.654;2022-08-01T12:39:31;24.70;1.00
16200;DHT22;8207;52.494;4.654;2022-08-01T12:41:58;24.70;1.00
16200;DHT22;8207;52.494;4.654;2022-08-01T12:44:26;24.60;1.00
16200;DHT22;8207;52.494;4.654;2022-08-01T12:46:55;24.70;1.00
16200;DHT22;8207;52.494;4.654;2022-08-01T12:49:22;24.80;1.00
16200;DHT22;8207;52.494;4.654;2022-08-01T12:51:49;24.90;1.00
16200;DHT22;8207;52.494;4.654;2022-08-01T12:54:17;24.90;1.00
16200;DHT22;8207;52.494;4.654;2022-08-01T12:56:44;25.10;1.00
16200;DHT22;8207;52.494;4.654;2022-08-01T12:59:22;25.00;1.00
16200;DHT22;8207;52.494;4.654;2022-08-01T13:01:51;25.20;1.00
16200;DHT22;8207;52.494;4.654;2022-08-01T13:04:19;25.50;1.00
16200;DHT22;8207;52.494;4.654;2022-08-01T13:06:47;25.60;99.90
16200;DHT22;8207;52.494;4.654;2022-08-01T13:09:14;25.60;99.90
16200;DHT22;8207;52.494;4.654;2022-08-01T13:11:41;25.40;1.00
16200;DHT22;8207;52.494;4.654;2022-08-01T13:14:09;25.00;1.00
16200;DHT22;8207;52.494;4.654;2022-08-01T13:16:46;25.00;99.90
16200;DHT22;8207;52.494;4.654;2022-08-01T13:19:14;25.10;99.90
16200;DHT22;8207;52.494;4.654;2022-08-01T13:21:55;24.90;1.00
16200;DHT22;8207;52.494;4.654;2022-08-01T13:24:24;24.90;1.00
16200;DHT22;8207;52.494;4.654;2022-08-01T13:26:53;25.00;1.00
16200;DHT22;8207;52.494;4.654;2022-08-01T13:29:31;25.00;1.00
16200;DHT22;8207;52.494;4.654;2022-08-01T13:31:58;25.10;1.00
16200;DHT22;8207;52.494;4.654;2022-08-01T13:34:31;25.10;1.00
16200;DHT22;8207;52.494;4.654;2022-08-01T13:37:00;25.20;1.00
16200;DHT22;8207;52.494;4.654;2022-08-01T13:39:28;25.20;1.00
16200;DHT22;8207;52.494;4.654;2022-08-01T13:42:06;25.20;1.00
16200;DHT22;8207;52.494;4.654;2022-08-01T13:44:36;25.20;1.00
16200;DHT22;8207;52.494;4.654;2022-08-01T13:47:04;25.20;1.00
16200;DHT22;8207;52.494;4.654;2022-08-01T13:49:31;25.30;1.00
16200;DHT22;8207;52.494;4.654;2022-08-01T13:52:00;25.50;99.90
16200;DHT22;8207;52.494;4.654;2022-08-01T13:54:27;25.60;1.00
16200;DHT22;8207;52.494;4.654;2022-08-01T13:56:54;25.40;9.20
16200;DHT22;8207;52.494;4.654;2022-08-01T13:59:21;25.40;99.90
16200;DHT22;8207;52.494;4.654;2022-08-01T14:01:48;25.40;99.90
16200;DHT22;8207;52.494;4.654;2022-08-01T14:04:14;25.50;99.90
16200;DHT22;8207;52.494;4.654;2022-08-01T14:06:41;25.50;99.90
16200;DHT22;8207;52.494;4.654;2022-08-01T14:09:10;25.70;99.90
16200;DHT22;8207;52.494;4.654;2022-08-01T14:11:37;25.80;99.90
16200;DHT22;8207;52.494;4.654;2022-08-01T14:14:04;25.90;99.90
16200;DHT22;8207;52.494;4.654;2022-08-01T14:16:30;25.80;99.90
16200;DHT22;8207;52.494;4.654;2022-08-01T14:18:57;25.70;99.90
16200;DHT22;8207;52.494;4.654;2022-08-01T14:21:24;25.20;99.90
16200;DHT22;8207;52.494;4.654;2022-08-01T14:23:52;25.00;99.90
16200;DHT22;8207;52.494;4.654;2022-08-01T14:26:20;24.90;99.90
16200;DHT22;8207;52.494;4.654;2022-08-01T14:28:47;24.80;99.90
16200;DHT22;8207;52.494;4.654;2022-08-01T14:31:14;24.80;1.00
16200;DHT22;8207;52.494;4.654;2022-08-01T14:33:41;25.00;99.90
16200;DHT22;8207;52.494;4.654;2022-08-01T14:36:10;25.00;99.90
16200;DHT22;8207;52.494;4.654;2022-08-01T14:38:37;24.80;99.90
16200;DHT22;8207;52.494;4.654;2022-08-01T14:41:04;24.80;1.00
16200;DHT22;8207;52.494;4.654;2022-08-01T14:43:32;24.70;1.00
16200;DHT22;8207;52.494;4.654;2022-08-01T14:46:00;24.70;99.90
16200;DHT22;8207;52.494;4.654;2022-08-01T14:48:28;24.70;83.90
16200;DHT22;8207;52.494;4.654;2022-08-01T14:50:56;24.70;1.00
16200;DHT22;8207;52.494;4.654;2022-08-01T14:53:23;24.80;99.90
16200;DHT22;8207;52.494;4.654;2022-08-01T14:55:50;24.80;99.90
16200;DHT22;8207;52.494;4.654;2022-08-01T14:58:17;25.00;99.90
16200;DHT22;8207;52.494;4.654;2022-08-01T15:00:45;25.00;86.60
16200;DHT22;8207;52.494;4.654;2022-08-01T15:03:12;24.90;1.00
16200;DHT22;8207;52.494;4.654;2022-08-01T15:05:39;24.90;1.00
16200;DHT22;8207;52.494;4.654;2022-08-01T15:08:06;24.80;1.00
16200;DHT22;8207;52.494;4.654;2022-08-01T15:10:33;24.80;1.00
16200;DHT22;8207;52.494;4.654;2022-08-01T15:13:00;24.90;1.00
16200;DHT22;8207;52.494;4.654;2022-08-01T15:15:27;24.90;1.00
16200;DHT22;8207;52.494;4.654;2022-08-01T15:17:56;25.00;1.00
16200;DHT22;8207;52.494;4.654;2022-08-01T15:20:23;24.90;1.00
16200;DHT22;8207;52.494;4.654;2022-08-01T15:22:50;24.80;1.00
16200;DHT22;8207;52.494;4.654;2022-08-01T15:25:18;24.70;1.00
16200;DHT22;8207;52.494;4.654;2022-08-01T15:27:45;24.60;1.00
16200;DHT22;8207;52.494;4.654;2022-08-01T15:30:12;24.50;1.00
16200;DHT22;8207;52.494;4.654;2022-08-01T15:32:42;24.50;1.00
16200;DHT22;8207;52.494;4.654;2022-08-01T15:35:10;24.40;1.00
16200;DHT22;8207;52.494;4.654;2022-08-01T15:37:40;24.40;1.00
16200;DHT22;8207;52.494;4.654;2022-08-01T15:40:11;24.40;1.00
16200;DHT22;8207;52.494;4.654;2022-08-01T15:42:38;24.40;1.00
16200;DHT22;8207;52.494;4.654;2022-08-01T15:45:06;24.30;1.00
16200;DHT22;8207;52.494;4.654;2022-08-01T15:47:34;24.30;1.00
16200;DHT22;8207;52.494;4.654;2022-08-01T15:50:01;24.30;1.00
16200;DHT22;8207;52.494;4.654;2022-08-01T15:52:31;24.20;1.00
16200;DHT22;8207;52.494;4.654;2022-08-01T15:54:58;24.20;1.00
16200;DHT22;8207;52.494;4.654;2022-08-01T15:57:25;24.30;1.00
16200;DHT22;8207;52.494;4.654;2022-08-01T15:59:52;24.20;1.00
16200;DHT22;8207;52.494;4.654;2022-08-01T16:02:19;24.10;1.00
16200;DHT22;8207;52.494;4.654;2022-08-01T16:04:46;24.00;1.00
16200;DHT22;8207;52.494;4.654;2022-08-01T16:07:14;24.00;1.00